Terminal Aerodrome Forecast
Issued by NWS

Home | Current Version | Previous Version | Text Only | Print | Product List | Glossary On
Versions: 1 2 3 4 5 6 7 8 9 10 11 12 13 14 15 16 17 18 19 20
000
FTUS45 KTFX 240531
TAFBZN
TAF
KBZN 240531Z 2406/2506 22004KT 4SM -SN BR OVC030
     FM241000 VRB04KT 5SM BR SCT030 BKN060
     FM241500 VRB05KT P6SM SCT035 BKN100=

USA.gov is the U.S. government's official web portal to all federal, state and local government web resources and services.